Opolis, Kansas
Current Conditions -  °F | °C
As of 8:15 AM on Tuesday 21 Oct 2014 (Local Time) from KPTS Reporting Station
Broken Clouds Broken Clouds  
Wind Chill: 47°   Ceiling: 100
Heat Index: 47°   Visibility: 10mi
Dew Point: 47°   Wind: 0mph
Humidity: 100%   Direction: NA
Pressure: 30.11"   Gusts: NA
Location:  37.34°N, 94.62°W
Report Text: KPTS 211315Z AUTO 00000KT 10SM BKN001 09/09 A3011 RMK AO2 T00850085
Loading
Personal Weather Stations






























Interactive Weather Map
Tropical Storm Tracking
New forecast layout! Learn more

10-Day Weather Forecast

Advertisements
Track Severe Weather on mobile